Time;durP1;ratioP1;P1;durP2;ratioP2;P2;SDS_P1;SDS_P2;PMS_P1;PMS_P2;Temp;Humidity;BMP_temperature;BMP_pressure;BME280_temperature;BME280_humidity;BME280_pressure;Samples;Min_cycle;Max_cycle;Signal;HPM_P1;HPM_P2
2022/09/10 00:01:38;;;;;;;2.15;0.65;;;24.80;49.80;;;;;;5052997;28;20090;-51
2022/09/10 00:04:10;;;;;;;1.25;0.47;;;24.80;49.80;;;;;;5058856;28;20112;-53
2022/09/10 00:06:37;;;;;;;2.20;0.75;;;24.80;49.90;;;;;;5056203;28;20052;-50
2022/09/10 00:09:04;;;;;;;1.42;0.52;;;24.80;49.90;;;;;;5058068;28;20069;-50
2022/09/10 00:11:30;;;;;;;1.40;0.55;;;24.80;49.90;;;;;;5040514;28;20029;-50
2022/09/10 00:14:01;;;;;;;1.23;0.70;;;24.80;49.90;;;;;;5038135;28;20033;-52
2022/09/10 00:16:29;;;;;;;1.45;0.60;;;24.80;49.90;;;;;;5037899;28;20320;-50
2022/09/10 00:18:56;;;;;;;3.58;0.60;;;24.80;49.90;;;;;;5046515;28;20052;-52
2022/09/10 00:21:22;;;;;;;1.77;0.57;;;24.80;49.90;;;;;;5057723;28;20033;-52
2022/09/10 00:23:48;;;;;;;1.10;0.60;;;24.80;49.90;;;;;;5058229;28;20021;-51
2022/09/10 00:26:17;;;;;;;1.20;0.57;;;24.80;50.00;;;;;;5050981;28;20045;-54
2022/09/10 00:28:42;;;;;;;1.25;0.50;;;24.70;49.90;;;;;;5037336;28;20449;-53
2022/09/10 00:31:09;;;;;;;2.08;0.70;;;24.80;50.00;;;;;;5037628;28;20033;-52
2022/09/10 00:33:36;;;;;;;2.08;0.70;;;24.70;49.90;;;;;;5046995;28;20029;-53
2022/09/10 00:36:04;;;;;;;1.05;0.60;;;24.80;50.00;;;;;;5054409;28;20032;-51
2022/09/10 00:38:30;;;;;;;1.05;0.50;;;24.80;50.00;;;;;;5054673;28;20120;-52
2022/09/10 00:41:07;;;;;;;1.55;0.73;;;24.70;49.90;;;;;;5054170;28;20032;-51
2022/09/10 00:43:48;;;;;;;2.10;0.65;;;24.70;49.90;;;;;;5056386;28;20039;-51
2022/09/10 00:46:24;;;;;;;1.90;0.75;;;24.70;49.90;;;;;;5053420;28;20067;-50
2022/09/10 00:48:51;;;;;;;1.73;0.50;;;24.70;50.00;;;;;;5050616;28;20458;-51
2022/09/10 00:51:18;;;;;;;2.08;0.75;;;24.70;50.00;;;;;;5056944;28;20472;-53
2022/09/10 00:53:45;;;;;;;2.10;0.63;;;24.70;50.00;;;;;;5057003;28;20037;-53
2022/09/10 00:56:13;;;;;;;2.58;0.73;;;24.70;50.00;;;;;;5053191;28;20025;-54
2022/09/10 00:58:40;;;;;;;2.00;0.60;;;24.70;50.00;;;;;;5052750;28;20025;-51
2022/09/10 01:01:06;;;;;;;1.55;0.80;;;24.70;50.00;;;;;;5052951;28;20095;-52
2022/09/10 01:03:32;;;;;;;1.38;0.60;;;24.70;50.00;;;;;;5049581;28;20470;-53
2022/09/10 01:05:58;;;;;;;2.72;0.85;;;24.70;50.10;;;;;;5054524;28;20044;-52
2022/09/10 01:08:26;;;;;;;2.47;0.70;;;24.70;50.10;;;;;;5052611;28;20356;-53
2022/09/10 01:11:05;;;;;;;1.50;0.73;;;24.70;50.10;;;;;;5033221;28;20117;-52
2022/09/10 01:14:05;;;;;;;1.98;0.60;;;24.70;50.10;;;;;;5017324;28;20034;-49
2022/09/10 01:16:51;;;;;;;2.35;0.77;;;24.70;50.10;;;;;;5031093;28;20044;-49
2022/09/10 01:19:55;;;;;;;3.60;0.95;;;24.70;50.10;;;;;;5055810;28;20033;-50
2022/09/10 01:22:26;;;;;;;1.70;0.90;;;24.70;50.20;;;;;;5056976;28;20440;-51
2022/09/10 01:25:06;;;;;;;1.42;0.63;;;24.70;50.20;;;;;;5046965;28;20397;-54
2022/09/10 01:27:46;;;;;;;2.67;0.80;;;24.60;50.20;;;;;;5055552;28;20029;-47
2022/09/10 01:30:36;;;;;;;3.22;1.15;;;24.60;50.20;;;;;;5055124;28;20029;-49
2022/09/10 01:33:33;;;;;;;1.67;1.08;;;24.60;50.20;;;;;;5054940;28;20449;-51
2022/09/10 01:36:05;;;;;;;1.23;0.80;;;24.60;50.20;;;;;;5030690;28;20128;-50
2022/09/10 01:38:34;;;;;;;2.08;1.05;;;24.60;50.30;;;;;;5038046;28;20017;-51
2022/09/10 01:41:01;;;;;;;1.73;0.85;;;24.60;50.30;;;;;;5054722;28;20091;-47
2022/09/10 01:43:32;;;;;;;1.70;0.82;;;24.60;50.30;;;;;;5054991;28;20120;-50
2022/09/10 01:46:35;;;;;;;1.23;0.68;;;24.60;50.30;;;;;;5036768;28;20071;-52
2022/09/10 01:49:26;;;;;;;2.95;0.90;;;24.60;50.40;;;;;;5052857;28;20029;-52
2022/09/10 01:52:25;;;;;;;2.78;1.30;;;24.60;50.40;;;;;;5053985;28;20037;-50
2022/09/10 01:54:55;;;;;;;3.03;0.82;;;24.60;50.40;;;;;;5045748;28;20440;-53
2022/09/10 01:57:51;;;;;;;1.65;1.05;;;24.60;50.40;;;;;;5040759;28;20033;-55
2022/09/10 02:00:20;;;;;;;2.20;1.13;;;24.60;50.40;;;;;;5036110;28;20025;-50
2022/09/10 02:03:13;;;;;;;2.95;0.95;;;24.60;50.50;;;;;;5038665;28;20041;-50
2022/09/10 02:05:42;;;;;;;1.92;0.95;;;24.60;50.50;;;;;;5031343;28;20045;-53
2022/09/10 02:08:17;;;;;;;2.28;1.10;;;24.60;50.50;;;;;;5040826;28;20466;-55
2022/09/10 02:10:50;;;;;;;2.33;1.25;;;24.60;50.60;;;;;;5050540;28;20021;-55
2022/09/10 02:13:16;;;;;;;2.55;1.10;;;24.60;50.60;;;;;;5053616;28;20120;-54
2022/09/10 02:16:07;;;;;;;2.22;0.95;;;24.60;50.60;;;;;;5018858;28;20030;-51
2022/09/10 02:18:44;;;;;;;2.50;0.90;;;24.60;50.60;;;;;;5015820;28;20029;-56
2022/09/10 02:21:11;;;;;;;2.95;1.27;;;24.60;50.60;;;;;;5037516;28;20086;-51
2022/09/10 02:23:47;;;;;;;2.25;1.00;;;24.50;50.60;;;;;;5051615;28;20041;-54
2022/09/10 02:26:14;;;;;;;2.03;0.80;;;24.60;50.70;;;;;;5050582;28;20088;-50
2022/09/10 02:28:42;;;;;;;2.63;1.00;;;24.50;50.70;;;;;;5035737;28;20077;-51
2022/09/10 02:31:09;;;;;;;3.63;1.35;;;24.60;50.70;;;;;;5050942;28;20034;-53
2022/09/10 02:33:34;;;;;;;2.88;1.10;;;24.60;50.70;;;;;;5044430;28;20364;-53
2022/09/10 02:36:02;;;;;;;3.05;1.13;;;24.50;50.70;;;;;;5052174;28;20061;-52
2022/09/10 02:38:30;;;;;;;1.90;1.00;;;24.50;50.70;;;;;;5052563;28;20028;-52
2022/09/10 02:40:58;;;;;;;1.95;0.80;;;24.60;50.80;;;;;;5038016;28;20364;-51
2022/09/10 02:43:27;;;;;;;1.88;1.00;;;24.50;50.70;;;;;;5038024;28;20441;-49
2022/09/10 02:45:57;;;;;;;3.45;1.20;;;24.50;50.80;;;;;;5052822;28;20448;-53
2022/09/10 02:48:25;;;;;;;1.73;1.00;;;24.50;50.80;;;;;;5048526;28;20029;-49
2022/09/10 02:50:55;;;;;;;1.58;1.00;;;24.50;50.80;;;;;;5042757;28;20113;-52
2022/09/10 02:53:21;;;;;;;1.75;1.00;;;24.50;50.80;;;;;;5051691;28;20236;-51
2022/09/10 02:55:51;;;;;;;1.98;0.98;;;24.50;50.90;;;;;;5033019;28;20056;-54
2022/09/10 02:58:20;;;;;;;2.25;1.00;;;24.50;50.90;;;;;;5023415;28;20037;-55
2022/09/10 03:00:46;;;;;;;2.97;0.93;;;24.50;50.90;;;;;;5054103;28;20403;-54
2022/09/10 03:03:12;;;;;;;2.67;0.90;;;24.50;50.90;;;;;;5053164;28;20119;-49
2022/09/10 03:05:40;;;;;;;1.70;0.93;;;24.50;50.90;;;;;;5051546;28;20448;-52
2022/09/10 03:08:08;;;;;;;2.10;0.85;;;24.50;50.90;;;;;;5053794;28;20033;-51
2022/09/10 03:10:36;;;;;;;3.13;1.02;;;24.50;50.90;;;;;;5054641;28;20409;-52
2022/09/10 03:13:01;;;;;;;3.22;1.10;;;24.50;50.90;;;;;;5053116;28;20040;-52
2022/09/10 03:15:27;;;;;;;1.52;0.98;;;24.50;51.00;;;;;;5050423;28;20067;-51
2022/09/10 03:17:54;;;;;;;1.77;0.98;;;24.50;51.10;;;;;;5053823;28;20056;-55
2022/09/10 03:20:21;;;;;;;2.08;0.77;;;24.50;51.10;;;;;;5053257;28;20053;-53
2022/09/10 03:22:50;;;;;;;2.47;1.02;;;24.50;51.10;;;;;;5017084;28;20033;-52
2022/09/10 03:25:18;;;;;;;2.05;0.90;;;24.50;51.10;;;;;;5036145;28;20034;-53
2022/09/10 03:27:44;;;;;;;2.50;0.90;;;24.50;51.10;;;;;;5053033;28;20075;-51
2022/09/10 03:30:11;;;;;;;2.00;1.00;;;24.50;51.20;;;;;;5055927;28;20037;-49
2022/09/10 03:32:37;;;;;;;1.35;0.80;;;24.50;51.20;;;;;;5056238;28;20047;-52
2022/09/10 03:35:05;;;;;;;1.58;0.88;;;24.40;51.10;;;;;;5056508;28;20113;-52
2022/09/10 03:37:31;;;;;;;2.33;1.13;;;24.40;51.20;;;;;;5053112;28;20407;-54
2022/09/10 03:39:57;;;;;;;2.67;1.02;;;24.50;51.30;;;;;;5021051;28;20037;-51
2022/09/10 03:42:24;;;;;;;2.65;1.10;;;24.40;51.20;;;;;;5054402;28;20033;-52
2022/09/10 03:44:50;;;;;;;2.13;0.98;;;24.40;51.20;;;;;;5043288;28;20026;-53
2022/09/10 03:47:16;;;;;;;2.67;1.10;;;24.40;51.30;;;;;;5017317;28;20049;-50
2022/09/10 03:49:42;;;;;;;1.88;1.15;;;24.40;51.30;;;;;;5084953;28;20025;-53
2022/09/10 03:52:11;;;;;;;2.38;1.08;;;24.40;51.30;;;;;;5054305;28;20029;-54
2022/09/10 03:54:39;;;;;;;1.85;1.00;;;24.40;51.30;;;;;;5053439;28;20033;-48
2022/09/10 03:57:05;;;;;;;2.75;0.90;;;24.40;51.40;;;;;;5058422;28;20033;-52
2022/09/10 03:59:31;;;;;;;2.47;1.05;;;24.40;51.40;;;;;;5041958;28;20048;-54
2022/09/10 04:01:59;;;;;;;2.97;0.80;;;24.40;51.40;;;;;;5053809;28;20034;-53
2022/09/10 04:04:25;;;;;;;1.33;0.98;;;24.40;51.40;;;;;;5044538;28;20024;-53
2022/09/10 04:06:54;;;;;;;1.30;0.85;;;24.40;51.40;;;;;;5037619;28;20354;-48
2022/09/10 04:09:20;;;;;;;1.80;1.05;;;24.40;51.50;;;;;;5037050;28;20531;-52
2022/09/10 04:11:46;;;;;;;1.70;1.00;;;24.40;52.10;;;;;;5036994;28;20029;-53
2022/09/10 04:14:12;;;;;;;2.35;0.93;;;24.40;51.50;;;;;;5055569;28;20354;-54
2022/09/10 04:16:41;;;;;;;2.15;1.00;;;24.40;51.50;;;;;;5056959;28;20033;-51
2022/09/10 04:19:10;;;;;;;2.10;1.10;;;24.40;51.50;;;;;;5044927;28;20025;-51
2022/09/10 04:21:36;;;;;;;2.55;1.50;;;24.40;51.50;;;;;;5071174;28;20399;-47
2022/09/10 04:24:02;;;;;;;1.17;0.75;;;24.40;51.60;;;;;;5054690;28;20033;-54
2022/09/10 04:26:29;;;;;;;2.80;1.30;;;24.40;51.60;;;;;;5053343;28;20102;-52
2022/09/10 04:28:55;;;;;;;1.98;1.00;;;24.40;51.60;;;;;;5044795;28;20022;-51
2022/09/10 04:31:21;;;;;;;2.38;1.20;;;24.40;51.70;;;;;;5033821;28;20040;-52
2022/09/10 04:33:48;;;;;;;1.98;1.05;;;24.40;51.70;;;;;;5068800;28;20024;-52
2022/09/10 04:36:18;;;;;;;1.40;0.85;;;24.40;51.60;;;;;;5054502;28;20029;-54
2022/09/10 04:38:44;;;;;;;1.20;0.90;;;24.40;51.70;;;;;;5056534;28;20512;-53
2022/09/10 04:41:14;;;;;;;2.05;0.80;;;24.40;51.70;;;;;;5041110;28;20060;-51
2022/09/10 04:43:41;;;;;;;1.88;0.98;;;24.40;51.70;;;;;;5053143;28;20361;-54
2022/09/10 04:46:07;;;;;;;3.00;1.05;;;24.40;51.80;;;;;;5050776;28;20051;-52
2022/09/10 04:48:35;;;;;;;1.67;1.17;;;24.40;51.80;;;;;;5052200;28;20025;-51
2022/09/10 04:51:01;;;;;;;1.52;0.80;;;24.40;51.80;;;;;;5037754;28;20029;-53
2022/09/10 04:53:27;;;;;;;2.35;1.02;;;24.40;51.80;;;;;;5051515;28;20060;-53
2022/09/10 04:55:55;;;;;;;1.10;0.70;;;24.40;51.80;;;;;;5037009;28;20049;-52
2022/09/10 04:58:21;;;;;;;2.05;1.23;;;24.30;51.80;;;;;;5032838;28;20037;-53
2022/09/10 05:00:48;;;;;;;2.40;1.10;;;24.40;51.90;;;;;;5033293;28;20030;-54
2022/09/10 05:03:16;;;;;;;1.45;0.80;;;24.40;51.90;;;;;;5039673;28;20025;-50
2022/09/10 05:05:46;;;;;;;1.35;0.80;;;24.40;52.00;;;;;;5053355;28;20144;-53
2022/09/10 05:08:13;;;;;;;2.05;0.80;;;24.40;52.00;;;;;;5057091;28;20041;-50
2022/09/10 05:10:42;;;;;;;2.28;1.00;;;24.40;52.00;;;;;;5056069;28;20439;-51
2022/09/10 05:13:08;;;;;;;2.25;1.17;;;24.40;52.00;;;;;;5055928;28;20057;-54
2022/09/10 05:15:34;;;;;;;2.83;0.85;;;24.30;52.00;;;;;;5052172;28;20412;-52
2022/09/10 05:18:02;;;;;;;2.47;0.90;;;24.40;52.10;;;;;;5035394;28;20025;-50
2022/09/10 05:20:30;;;;;;;1.13;0.60;;;24.40;52.10;;;;;;5052635;28;20365;-53
2022/09/10 05:22:57;;;;;;;1.58;0.98;;;24.30;52.10;;;;;;5051961;28;20076;-54
2022/09/10 05:25:23;;;;;;;1.80;0.90;;;24.40;52.10;;;;;;5045043;28;20448;-55
2022/09/10 05:27:50;;;;;;;1.80;0.80;;;24.30;52.10;;;;;;5053237;28;20034;-52
2022/09/10 05:30:19;;;;;;;1.73;0.80;;;24.30;52.10;;;;;;5056727;28;20414;-49
2022/09/10 05:32:46;;;;;;;1.30;0.90;;;24.40;52.20;;;;;;5053749;28;20031;-54
2022/09/10 05:35:13;;;;;;;1.30;0.65;;;24.30;52.20;;;;;;5049914;28;20582;-53
2022/09/10 05:37:42;;;;;;;1.17;0.88;;;24.30;52.20;;;;;;5054120;28;20025;-50
2022/09/10 05:40:10;;;;;;;2.60;0.88;;;24.30;52.20;;;;;;5048084;28;20502;-55
2022/09/10 05:42:37;;;;;;;1.42;0.75;;;24.30;52.20;;;;;;5054974;28;20044;-55
2022/09/10 05:45:03;;;;;;;1.30;0.70;;;24.30;52.20;;;;;;5035412;28;20400;-53
2022/09/10 05:47:29;;;;;;;1.65;0.88;;;24.30;52.20;;;;;;5051995;28;20025;-53
2022/09/10 05:49:57;;;;;;;1.48;0.80;;;24.30;52.30;;;;;;5041537;28;20117;-52
2022/09/10 05:52:25;;;;;;;1.35;0.80;;;24.30;52.30;;;;;;5056050;28;20444;-49
2022/09/10 05:54:55;;;;;;;1.23;0.70;;;24.30;52.30;;;;;;5054802;28;20032;-51
2022/09/10 05:57:21;;;;;;;1.20;0.70;;;24.30;52.40;;;;;;5054903;28;20025;-53
2022/09/10 05:59:47;;;;;;;1.48;0.80;;;24.30;52.40;;;;;;5051340;28;20054;-55
2022/09/10 06:02:17;;;;;;;2.80;0.70;;;24.30;52.40;;;;;;5054295;28;20021;-55
2022/09/10 06:04:43;;;;;;;1.33;0.73;;;24.30;52.40;;;;;;5055434;28;20507;-56
2022/09/10 06:07:09;;;;;;;2.22;0.90;;;24.30;52.40;;;;;;5038661;28;20046;-52
2022/09/10 06:09:35;;;;;;;1.13;0.60;;;24.30;52.50;;;;;;5051289;28;20368;-53
2022/09/10 06:12:10;;;;;;;1.73;0.82;;;24.30;52.50;;;;;;5054910;28;20518;-51
2022/09/10 06:14:36;;;;;;;1.63;0.80;;;24.30;52.50;;;;;;5035466;28;20041;-55
2022/09/10 06:17:03;;;;;;;2.03;0.98;;;24.40;52.60;;;;;;5054030;28;20040;-50
2022/09/10 06:19:30;;;;;;;1.60;0.80;;;24.30;52.60;;;;;;5040317;28;20108;-54
2022/09/10 06:21:56;;;;;;;1.67;0.90;;;24.30;52.60;;;;;;5044743;28;20053;-53
2022/09/10 06:24:24;;;;;;;1.25;0.80;;;24.40;52.70;;;;;;5035702;28;20466;-52
2022/09/10 06:26:53;;;;;;;1.00;0.60;;;24.30;52.70;;;;;;5047153;28;20186;-54
2022/09/10 06:29:21;;;;;;;2.50;0.80;;;24.40;52.80;;;;;;5046165;28;20029;-50
2022/09/10 06:31:47;;;;;;;1.83;0.80;;;24.30;52.70;;;;;;5039956;28;20130;-52
2022/09/10 06:34:16;;;;;;;1.48;0.73;;;24.40;52.80;;;;;;5043872;28;20067;-52
2022/09/10 06:36:42;;;;;;;1.38;0.70;;;24.30;52.70;;;;;;5047574;28;20032;-51
2022/09/10 06:39:08;;;;;;;0.93;0.68;;;24.30;52.80;;;;;;5044688;28;20356;-53
2022/09/10 06:41:54;;;;;;;2.05;1.00;;;24.30;52.80;;;;;;5040235;28;20036;-52
2022/09/10 06:44:55;;;;;;;1.67;0.73;;;24.40;52.90;;;;;;5035993;28;20071;-52
2022/09/10 06:47:35;;;;;;;1.60;0.95;;;24.30;52.90;;;;;;5046573;28;20040;-52
2022/09/10 06:50:00;;;;;;;2.17;0.98;;;24.30;52.80;;;;;;5033149;28;20040;-54
2022/09/10 06:52:28;;;;;;;2.35;1.10;;;24.30;52.90;;;;;;5035939;28;20065;-56
2022/09/10 06:54:59;;;;;;;1.23;0.70;;;24.40;53.00;;;;;;5030089;28;20120;-53
2022/09/10 06:57:40;;;;;;;1.52;0.80;;;24.30;53.00;;;;;;5042400;28;20027;-52
2022/09/10 07:00:07;;;;;;;2.00;1.00;;;24.30;53.10;;;;;;5037569;28;20094;-55
2022/09/10 07:02:34;;;;;;;1.10;0.75;;;24.30;53.10;;;;;;5052977;28;20424;-55
2022/09/10 07:05:00;;;;;;;1.85;0.95;;;24.30;53.10;;;;;;5039924;28;20037;-52
2022/09/10 07:07:29;;;;;;;2.53;0.82;;;24.30;53.20;;;;;;5039333;28;20045;-54
2022/09/10 07:09:54;;;;;;;1.98;1.02;;;24.30;53.20;;;;;;5044041;28;20566;-53
2022/09/10 07:12:21;;;;;;;2.65;0.90;;;24.30;53.30;;;;;;5035773;28;20029;-53
2022/09/10 07:14:48;;;;;;;3.22;0.95;;;24.30;53.40;;;;;;5038461;28;20440;-53
2022/09/10 07:17:14;;;;;;;1.42;0.90;;;24.30;53.40;;;;;;5035759;28;20021;-51
2022/09/10 07:19:40;;;;;;;1.90;1.00;;;24.30;53.40;;;;;;5032955;28;20030;-52
2022/09/10 07:22:24;;;;;;;2.00;0.80;;;24.30;53.40;;;;;;5042727;28;20041;-49
2022/09/10 07:24:50;;;;;;;2.25;1.00;;;24.30;53.50;;;;;;5040622;28;20317;-54
2022/09/10 07:27:38;;;;;;;2.78;1.23;;;24.30;53.90;;;;;;5046054;28;20060;-52
2022/09/10 07:30:05;;;;;;;2.45;1.25;;;24.40;54.10;;;;;;5044373;28;20459;-50
2022/09/10 07:32:32;;;;;;;2.35;1.10;;;24.40;54.00;;;;;;5036981;28;20052;-57
2022/09/10 07:35:06;;;;;;;1.92;1.08;;;24.40;54.00;;;;;;5076640;28;20013;-52
2022/09/10 07:37:33;;;;;;;4.22;1.25;;;24.40;54.00;;;;;;5042139;28;20087;-49
2022/09/10 07:40:03;;;;;;;1.70;1.20;;;24.40;53.90;;;;;;5043071;28;20111;-51
2022/09/10 07:42:29;;;;;;;1.73;1.13;;;24.40;53.90;;;;;;5045534;28;20115;-55
2022/09/10 07:44:55;;;;;;;4.57;1.20;;;24.40;54.00;;;;;;5041896;28;20025;-53
2022/09/10 07:47:24;;;;;;;1.60;1.00;;;24.40;53.90;;;;;;5045875;28;20373;-55
2022/09/10 07:49:51;;;;;;;2.83;1.23;;;24.40;53.90;;;;;;5045704;28;20033;-54
2022/09/10 07:52:17;;;;;;;3.70;1.30;;;24.40;53.90;;;;;;5040223;28;20052;-53
2022/09/10 07:54:49;;;;;;;1.77;1.15;;;24.40;53.90;;;;;;5042719;28;20029;-51
2022/09/10 07:57:15;;;;;;;2.40;1.30;;;24.40;53.90;;;;;;5046463;28;20031;-55
2022/09/10 07:59:42;;;;;;;1.98;1.10;;;24.40;53.90;;;;;;5045185;28;20025;-50
2022/09/10 08:02:14;;;;;;;3.70;1.45;;;24.40;53.90;;;;;;5047635;28;20120;-48
2022/09/10 08:04:45;;;;;;;2.03;1.17;;;24.40;53.80;;;;;;5037805;28;20026;-55
2022/09/10 08:07:11;;;;;;;2.30;1.08;;;24.40;53.90;;;;;;5068676;28;20049;-51
2022/09/10 08:09:39;;;;;;;3.33;1.20;;;24.40;53.80;;;;;;5051124;28;20424;-51
2022/09/10 08:12:08;;;;;;;2.50;1.10;;;24.40;53.90;;;;;;5037202;28;20487;-53
2022/09/10 08:14:36;;;;;;;2.05;1.17;;;24.40;53.90;;;;;;5037902;28;20420;-49
2022/09/10 08:17:04;;;;;;;2.30;1.20;;;24.40;53.90;;;;;;5037359;28;20033;-51
2022/09/10 08:19:36;;;;;;;1.90;1.25;;;24.40;53.90;;;;;;5036225;28;20029;-52
2022/09/10 08:22:03;;;;;;;2.67;1.20;;;24.40;53.90;;;;;;5049210;28;20033;-54
2022/09/10 08:24:34;;;;;;;2.38;1.15;;;24.40;53.90;;;;;;5050244;28;20029;-52
2022/09/10 08:27:00;;;;;;;1.73;0.90;;;24.40;53.90;;;;;;5032733;28;20128;-55
2022/09/10 08:29:27;;;;;;;1.52;1.10;;;24.40;53.90;;;;;;5053546;28;20121;-52
2022/09/10 08:31:53;;;;;;;1.92;1.25;;;24.40;53.90;;;;;;5038105;28;20033;-55
2022/09/10 08:34:25;;;;;;;2.33;1.10;;;24.40;53.90;;;;;;5057085;28;20109;-53
2022/09/10 08:36:59;;;;;;;2.20;1.23;;;24.40;53.90;;;;;;5056814;28;20033;-53
2022/09/10 08:39:26;;;;;;;2.97;1.23;;;24.40;53.90;;;;;;5055129;28;20208;-50
2022/09/10 08:42:06;;;;;;;1.73;1.05;;;24.40;54.00;;;;;;5040664;28;20136;-53
2022/09/10 08:44:58;;;;;;;1.83;0.88;;;24.40;54.00;;;;;;5036887;28;20413;-52
2022/09/10 08:47:39;;;;;;;2.08;1.13;;;24.40;53.90;;;;;;5033226;28;20046;-52
2022/09/10 08:50:20;;;;;;;1.90;1.02;;;24.30;53.90;;;;;;5054926;28;20029;-55
2022/09/10 08:53:03;;;;;;;1.95;0.85;;;24.40;54.00;;;;;;5040402;28;20041;-58
2022/09/10 08:55:33;;;;;;;1.20;0.90;;;24.40;54.00;;;;;;5036317;28;20427;-54
2022/09/10 08:58:10;;;;;;;1.48;0.90;;;24.40;54.00;;;;;;5042403;28;20451;-52
2022/09/10 09:00:39;;;;;;;1.52;0.90;;;24.40;54.10;;;;;;5036432;28;20045;-53
2022/09/10 09:03:23;;;;;;;1.57;0.87;;;24.40;54.10;;;;;;5047612;28;20039;-50
2022/09/10 09:06:01;;;;;;;2.20;1.20;;;24.40;54.10;;;;;;5049520;28;20068;-51
2022/09/10 09:08:47;;;;;;;1.55;1.20;;;24.40;54.20;;;;;;5049244;28;20415;-50
2022/09/10 09:11:23;;;;;;;1.83;1.00;;;24.40;54.30;;;;;;5039422;28;20192;-49
2022/09/10 09:13:52;;;;;;;1.77;0.82;;;24.40;54.30;;;;;;5041634;28;20075;-55
2022/09/10 09:16:43;;;;;;;1.55;0.98;;;24.40;54.40;;;;;;5048420;28;20044;-53
2022/09/10 09:19:39;;;;;;;2.42;0.90;;;24.40;54.40;;;;;;5048414;28;20032;-54
2022/09/10 09:22:26;;;;;;;0.70;0.60;;;24.40;54.40;;;;;;5048855;28;20055;-51
2022/09/10 09:24:58;;;;;;;1.02;0.70;;;24.40;54.40;;;;;;5044278;28;20033;-54
2022/09/10 09:27:32;;;;;;;2.17;0.80;;;24.40;54.50;;;;;;5048494;28;20033;-54
2022/09/10 09:30:14;;;;;;;1.80;0.77;;;24.40;54.50;;;;;;5039379;28;20053;-51
2022/09/10 09:32:43;;;;;;;1.67;0.88;;;24.40;54.50;;;;;;5037631;28;20025;-53
2022/09/10 09:35:27;;;;;;;1.15;0.70;;;24.40;54.50;;;;;;5037666;28;20025;-54
2022/09/10 09:38:16;;;;;;;1.45;0.60;;;24.40;54.50;;;;;;5045876;28;20048;-50
2022/09/10 09:40:50;;;;;;;1.73;0.90;;;24.40;54.60;;;;;;5043891;28;20470;-51
2022/09/10 09:43:33;;;;;;;2.22;0.60;;;24.40;54.70;;;;;;5049313;28;20028;-52
2022/09/10 09:46:00;;;;;;;1.35;0.60;;;24.40;54.80;;;;;;5040809;28;20037;-52
2022/09/10 09:48:38;;;;;;;0.98;0.70;;;24.40;54.80;;;;;;5046195;28;20063;-56
2022/09/10 09:51:06;;;;;;;2.95;0.80;;;24.40;54.70;;;;;;5043111;28;20031;-58
2022/09/10 09:53:32;;;;;;;1.17;0.68;;;24.40;54.70;;;;;;5041103;28;20025;-54
2022/09/10 09:56:06;;;;;;;1.08;0.50;;;24.40;54.60;;;;;;5047200;28;20064;-55
2022/09/10 09:58:34;;;;;;;0.80;0.60;;;24.40;54.60;;;;;;5043442;28;20061;-55
2022/09/10 10:01:03;;;;;;;0.85;0.60;;;24.40;54.50;;;;;;5043617;28;20028;-56
2022/09/10 10:03:29;;;;;;;1.17;0.70;;;24.40;54.50;;;;;;5041852;28;20124;-53
2022/09/10 10:06:04;;;;;;;1.00;0.70;;;24.40;54.50;;;;;;5042131;28;20904;-55
2022/09/10 10:08:57;;;;;;;1.08;0.52;;;24.40;54.50;;;;;;5043316;28;20042;-51
2022/09/10 10:11:39;;;;;;;0.57;0.50;;;24.40;54.50;;;;;;5046398;28;20048;-53
2022/09/10 10:14:20;;;;;;;1.15;0.50;;;24.40;54.50;;;;;;5046318;28;20037;-56
2022/09/10 10:16:51;;;;;;;0.63;0.60;;;24.40;54.50;;;;;;5048746;28;20027;-56
2022/09/10 10:19:36;;;;;;;0.75;0.40;;;24.40;54.50;;;;;;5046273;28;20029;-55
2022/09/10 10:22:17;;;;;;;0.88;0.50;;;24.50;54.50;;;;;;5046982;28;20029;-55
2022/09/10 10:24:46;;;;;;;0.88;0.47;;;24.40;54.40;;;;;;5043015;28;20024;-56
2022/09/10 10:27:31;;;;;;;1.17;0.50;;;24.50;54.50;;;;;;5048007;28;20451;-51
2022/09/10 10:30:06;;;;;;;0.70;0.47;;;24.50;54.50;;;;;;5047540;28;20029;-54
2022/09/10 10:32:50;;;;;;;0.60;0.50;;;24.50;54.50;;;;;;5048666;28;20087;-56
2022/09/10 10:35:40;;;;;;;0.60;0.40;;;24.50;54.50;;;;;;5042957;28;20076;-53
2022/09/10 10:38:06;;;;;;;0.77;0.40;;;24.50;54.50;;;;;;5033683;28;20033;-55
2022/09/10 10:40:55;;;;;;;0.63;0.40;;;24.50;54.50;;;;;;5041505;28;20083;-56
2022/09/10 10:43:41;;;;;;;0.70;0.45;;;24.50;54.60;;;;;;5045853;28;20021;-52
2022/09/10 10:46:19;;;;;;;0.65;0.40;;;24.50;54.60;;;;;;5046790;28;20175;-55
2022/09/10 10:49:24;;;;;;;0.90;0.45;;;24.60;54.70;;;;;;5047448;28;20033;-54
2022/09/10 10:52:05;;;;;;;0.45;0.45;;;24.60;54.70;;;;;;5040535;28;20048;-53
2022/09/10 10:55:16;;;;;;;0.63;0.40;;;24.60;54.70;;;;;;5044098;28;20036;-53
2022/09/10 10:58:09;;;;;;;0.25;0.25;;;24.60;54.70;;;;;;5046531;28;20039;-52
2022/09/10 11:00:41;;;;;;;1.35;0.50;;;24.70;55.10;;;;;;5047454;28;20328;-55
2022/09/10 11:03:16;;;;;;;1.92;0.70;;;24.70;55.30;;;;;;5042490;28;20081;-56
2022/09/10 11:05:47;;;;;;;1.92;0.88;;;24.70;55.30;;;;;;5041380;28;20098;-54
2022/09/10 11:08:40;;;;;;;0.85;0.60;;;24.80;55.40;;;;;;5038439;28;20048;-55
2022/09/10 11:11:43;;;;;;;2.85;0.57;;;24.70;55.40;;;;;;5044288;28;20106;-53
2022/09/10 11:14:34;;;;;;;1.95;0.63;;;24.80;55.60;;;;;;5042789;28;20039;-56
2022/09/10 11:17:26;;;;;;;3.80;0.70;;;24.80;55.80;;;;;;5043222;28;20629;-54
2022/09/10 11:20:23;;;;;;;1.95;0.70;;;24.80;55.80;;;;;;5040040;28;20033;-56
2022/09/10 11:23:05;;;;;;;1.05;0.90;;;24.80;55.80;;;;;;5046052;28;20120;-55
2022/09/10 11:25:39;;;;;;;0.98;0.60;;;24.80;55.70;;;;;;5046173;28;20126;-52
2022/09/10 11:28:20;;;;;;;0.98;0.60;;;24.80;55.70;;;;;;5039440;28;20065;-53
2022/09/10 11:30:56;;;;;;;1.75;0.70;;;24.90;55.70;;;;;;5044166;28;20029;-53
2022/09/10 11:33:50;;;;;;;1.17;0.60;;;24.80;55.50;;;;;;5037382;28;20033;-52
2022/09/10 11:36:26;;;;;;;1.88;0.95;;;24.90;55.50;;;;;;5031991;28;20069;-51
2022/09/10 11:39:18;;;;;;;2.15;0.80;;;24.90;55.50;;;;;;5042585;28;20025;-55
2022/09/10 11:41:49;;;;;;;3.40;0.50;;;24.90;55.50;;;;;;5042657;28;20033;-55
2022/09/10 11:44:15;;;;;;;0.93;0.60;;;24.90;55.40;;;;;;5049862;28;20024;-52
2022/09/10 11:46:53;;;;;;;1.52;1.00;;;24.90;55.50;;;;;;5047809;28;20048;-55
2022/09/10 11:49:31;;;;;;;0.85;0.43;;;24.90;55.60;;;;;;5047434;28;20078;-57
2022/09/10 11:51:57;;;;;;;1.00;0.60;;;25.00;55.60;;;;;;5045205;28;20061;-55
2022/09/10 11:54:27;;;;;;;0.82;0.60;;;24.90;55.50;;;;;;5048807;28;20060;-52
2022/09/10 11:56:59;;;;;;;2.30;0.70;;;25.00;55.50;;;;;;5043117;28;20021;-54
2022/09/10 11:59:57;;;;;;;0.85;0.55;;;25.00;55.50;;;;;;5040614;28;20393;-55
2022/09/10 12:02:38;;;;;;;0.90;0.52;;;25.00;55.30;;;;;;5044419;28;20036;-58
2022/09/10 12:05:44;;;;;;;1.02;0.70;;;25.00;55.30;;;;;;5048909;28;20025;-54
2022/09/10 12:08:16;;;;;;;0.75;0.50;;;25.00;55.30;;;;;;5045585;28;20094;-56
2022/09/10 12:11:15;;;;;;;0.85;0.57;;;25.00;55.30;;;;;;5050178;28;20029;-54
2022/09/10 12:13:44;;;;;;;0.60;0.50;;;25.00;55.20;;;;;;5049194;28;20091;-54
2022/09/10 12:16:30;;;;;;;4.35;0.60;;;25.00;55.20;;;;;;5047875;28;20029;-52
2022/09/10 12:18:58;;;;;;;1.30;0.60;;;25.00;55.10;;;;;;5050286;28;20055;-54
2022/09/10 12:21:28;;;;;;;0.47;0.40;;;25.00;55.20;;;;;;5046662;28;20029;-55
2022/09/10 12:23:55;;;;;;;0.40;0.40;;;25.00;55.10;;;;;;5049234;28;20510;-52
2022/09/10 12:26:21;;;;;;;1.05;0.50;;;25.00;55.00;;;;;;5045459;28;20106;-53
2022/09/10 12:28:47;;;;;;;0.47;0.40;;;25.00;55.20;;;;;;5047295;28;20505;-52
2022/09/10 12:31:15;;;;;;;1.70;0.60;;;25.10;55.50;;;;;;5045912;28;20108;-58
2022/09/10 12:33:41;;;;;;;2.67;0.63;;;25.10;55.70;;;;;;5049002;28;20052;-54
2022/09/10 12:36:07;;;;;;;1.00;0.70;;;25.10;55.70;;;;;;5044758;28;20490;-53
2022/09/10 12:38:55;;;;;;;1.55;0.65;;;25.10;55.70;;;;;;5041674;28;20041;-53
2022/09/10 12:41:23;;;;;;;1.20;0.60;;;25.20;55.70;;;;;;5041854;28;20064;-58
2022/09/10 12:43:52;;;;;;;0.85;0.55;;;25.20;55.60;;;;;;5042623;28;20029;-55
2022/09/10 12:46:23;;;;;;;1.70;0.50;;;25.20;55.50;;;;;;5047597;28;20574;-58
2022/09/10 12:48:54;;;;;;;1.10;0.40;;;25.20;55.40;;;;;;5049491;28;20398;-56
2022/09/10 12:51:50;;;;;;;1.02;0.50;;;25.20;55.30;;;;;;5049668;28;20028;-52
2022/09/10 12:54:47;;;;;;;2.15;0.52;;;25.20;55.20;;;;;;5045842;28;20029;-58
2022/09/10 12:57:49;;;;;;;0.50;0.40;;;25.20;55.10;;;;;;5050025;28;20098;-55
2022/09/10 13:00:20;;;;;;;0.63;0.52;;;25.20;55.00;;;;;;5034593;28;20456;-56
2022/09/10 13:03:05;;;;;;;2.28;0.60;;;25.20;54.90;;;;;;5059389;28;20353;-58
2022/09/10 13:05:43;;;;;;;1.48;0.60;;;25.30;55.00;;;;;;5038135;28;20116;-56
2022/09/10 13:08:15;;;;;;;0.60;0.60;;;25.30;54.90;;;;;;5043018;28;20021;-56
2022/09/10 13:11:12;;;;;;;0.70;0.60;;;25.30;54.80;;;;;;5051045;28;20033;-58
2022/09/10 13:13:51;;;;;;;0.82;0.60;;;25.30;54.70;;;;;;5035338;28;20449;-55
2022/09/10 13:16:21;;;;;;;1.40;0.50;;;25.30;54.60;;;;;;5033995;28;20042;-53
2022/09/10 13:18:47;;;;;;;0.88;0.50;;;25.30;55.20;;;;;;5048729;28;20048;-57